createdAt,value
2023-01-11T16:35:08.354Z,8.81
2023-01-11T16:39:25.356Z,8.81
2023-01-11T16:43:37.366Z,8.25
2023-01-11T16:47:45.383Z,8.61
2023-01-11T16:51:53.453Z,8.48
2023-01-11T16:56:28.368Z,8.44
2023-01-11T17:00:44.581Z,8.26
2023-01-11T17:04:57.582Z,8.35
2023-01-11T17:09:19.452Z,8.11
2023-01-11T17:13:58.577Z,8.23
2023-01-11T17:18:10.388Z,8.05
2023-01-11T17:22:29.549Z,8.19
2023-01-11T17:26:43.440Z,8.17
2023-01-11T17:30:56.575Z,7.85
2023-01-11T17:35:14.161Z,7.77
2023-01-11T17:39:31.402Z,7.84
2023-01-11T17:43:51.605Z,7.79
2023-01-11T17:48:01.597Z,7.83
2023-01-11T17:52:28.542Z,7.87
2023-01-11T17:56:39.540Z,7.88
2023-01-11T18:01:26.424Z,7.88
2023-01-11T18:05:48.388Z,7.83
2023-01-11T18:09:57.186Z,7.82
2023-01-11T18:14:08.343Z,7.73
2023-01-11T18:18:48.568Z,7.83
2023-01-11T18:22:58.762Z,7.68
2023-01-11T18:27:24.431Z,7.74
2023-01-11T18:31:32.533Z,7.46
2023-01-11T18:35:48.604Z,7.60
2023-01-11T18:39:57.351Z,7.67
2023-01-11T18:44:05.690Z,7.61
2023-01-11T18:48:12.063Z,7.67
2023-01-11T18:52:20.539Z,7.61
2023-01-11T18:56:22.202Z,7.50
2023-01-11T19:00:36.407Z,7.54
2023-01-11T19:04:44.380Z,7.33
2023-01-11T19:09:06.411Z,7.43
2023-01-11T19:13:14.559Z,7.67
2023-01-11T19:17:22.407Z,7.54
2023-01-11T19:21:30.372Z,7.64
2023-01-11T19:25:38.357Z,7.61
2023-01-11T19:29:40.110Z,7.69
2023-01-11T19:33:48.382Z,7.82
2023-01-11T19:37:57.546Z,7.83
2023-01-11T19:42:01.837Z,7.79
2023-01-11T19:46:11.624Z,7.61
2023-01-11T19:50:19.380Z,7.70
2023-01-11T19:54:28.365Z,7.79
2023-01-11T19:58:30.276Z,7.76
2023-01-11T20:02:45.409Z,7.71
2023-01-11T20:06:57.608Z,7.54
2023-01-11T20:11:07.789Z,7.56
2023-01-11T20:15:16.395Z,7.62
2023-01-11T20:19:31.374Z,7.48
2023-01-11T20:23:39.355Z,7.68
2023-01-11T20:27:47.393Z,7.69
2023-01-11T20:31:49.459Z,7.70
2023-01-11T20:35:57.420Z,7.81
2023-01-11T20:40:06.371Z,7.85
2023-01-11T20:44:14.454Z,7.77
2023-01-11T20:48:15.835Z,7.80
2023-01-11T20:52:23.586Z,7.68
